Weather at Bathurst Airport

Public forecast

Using degrees Celsius for public forecast. Weather courtesy of forecast.io.

Current aviation weather report (METAR) for Bathurst Airport

Retrieved 2020/12/04 22:00 UTC (9 minutes ago):

CZBF 042200Z AUTO 20005KT 9SM OVC170 02/M01 A2988 RMK SLP132

Aviation forecast (TAF) for Bathurst Airport

Retrieved 2020/12/04 20:00 UTC (2 hours ago):

TAF CZBF 041940Z 0420/0504 VRB03KT P6SM BKN070 FM042100 20007KT P6SM BKN030 OVC070 FM050000 24005KT P6SM FEW030 BKN080 RMK FCST BASED ON AUTO OBS NXT FCST BY 050200Z